sensor_id;sensor_type;location;lat;lon;timestamp;noise_LAeq;noise_LA_min;noise_LA_max;noise_LA01;noise_LA95
60031;Laerm;45901;47.600;9.890;2023-03-31T00:00:27;41.05;39.46;45.30;;
60031;Laerm;45901;47.600;9.890;2023-03-31T00:02:56;40.94;39.34;42.29;;
60031;Laerm;45901;47.600;9.890;2023-03-31T00:05:23;40.94;39.21;42.41;;
60031;Laerm;45901;47.600;9.890;2023-03-31T00:07:53;40.96;38.95;42.22;;
60031;Laerm;45901;47.600;9.890;2023-03-31T00:10:28;40.93;39.34;42.41;;
60031;Laerm;45901;47.600;9.890;2023-03-31T00:12:57;40.94;39.34;42.41;;
60031;Laerm;45901;47.600;9.890;2023-03-31T00:15:25;40.95;39.08;44.11;;
60031;Laerm;45901;47.600;9.890;2023-03-31T00:17:52;40.91;39.34;42.29;;
60031;Laerm;45901;47.600;9.890;2023-03-31T00:20:25;40.90;39.08;42.16;;
60031;Laerm;45901;47.600;9.890;2023-03-31T00:22:52;40.92;39.08;42.30;;
60031;Laerm;45901;47.600;9.890;2023-03-31T00:25:22;40.92;39.21;42.35;;
60031;Laerm;45901;47.600;9.890;2023-03-31T00:27:51;40.93;39.46;42.41;;
60031;Laerm;45901;47.600;9.890;2023-03-31T00:30:19;40.95;39.08;44.62;;
60031;Laerm;45901;47.600;9.890;2023-03-31T00:32:46;40.89;39.34;42.41;;
60031;Laerm;45901;47.600;9.890;2023-03-31T00:35:14;40.85;39.21;42.22;;
60031;Laerm;45901;47.600;9.890;2023-03-31T00:37:41;40.87;38.95;42.09;;
60031;Laerm;45901;47.600;9.890;2023-03-31T00:40:11;40.88;39.21;42.29;;
60031;Laerm;45901;47.600;9.890;2023-03-31T00:42:39;40.90;39.34;42.16;;
60031;Laerm;45901;47.600;9.890;2023-03-31T00:45:27;40.90;39.21;43.90;;
60031;Laerm;45901;47.600;9.890;2023-03-31T00:48:02;40.92;39.08;42.19;;
60031;Laerm;45901;47.600;9.890;2023-03-31T00:50:50;40.90;39.34;42.41;;
60031;Laerm;45901;47.600;9.890;2023-03-31T00:53:22;40.91;39.34;42.41;;
60031;Laerm;45901;47.600;9.890;2023-03-31T00:55:54;40.92;39.08;42.22;;
60031;Laerm;45901;47.600;9.890;2023-03-31T00:58:24;40.92;39.34;42.29;;
60031;Laerm;45901;47.600;9.890;2023-03-31T01:00:56;41.03;39.08;45.01;;
60031;Laerm;45901;47.600;9.890;2023-03-31T01:03:25;40.95;38.95;42.41;;
60031;Laerm;45901;47.600;9.890;2023-03-31T01:05:56;40.95;39.08;42.29;;
60031;Laerm;45901;47.600;9.890;2023-03-31T01:08:26;40.94;39.21;42.22;;
60031;Laerm;45901;47.600;9.890;2023-03-31T01:10:57;40.95;39.34;42.47;;
60031;Laerm;45901;47.600;9.890;2023-03-31T01:13:28;40.93;39.21;42.41;;
60031;Laerm;45901;47.600;9.890;2023-03-31T01:15:58;40.92;39.21;43.94;;
60031;Laerm;45901;47.600;9.890;2023-03-31T01:18:29;40.90;39.34;42.22;;
60031;Laerm;45901;47.600;9.890;2023-03-31T01:24:55;40.87;38.95;42.47;;
60031;Laerm;45901;47.600;9.890;2023-03-31T01:27:52;40.86;39.34;42.41;;
60031;Laerm;45901;47.600;9.890;2023-03-31T01:31:01;40.79;38.95;43.90;;
60031;Laerm;45901;47.600;9.890;2023-03-31T01:41:00;40.71;39.08;42.13;;
60031;Laerm;45901;47.600;9.890;2023-03-31T01:43:35;40.74;39.08;42.16;;
60031;Laerm;45901;47.600;9.890;2023-03-31T01:46:14;40.76;38.95;43.90;;
60031;Laerm;45901;47.600;9.890;2023-03-31T01:48:52;40.68;38.95;42.24;;
60031;Laerm;45901;47.600;9.890;2023-03-31T01:51:31;40.68;38.67;42.41;;
60031;Laerm;45901;47.600;9.890;2023-03-31T01:54:06;40.69;38.95;42.09;;
60031;Laerm;45901;47.600;9.890;2023-03-31T01:56:42;40.70;39.08;42.16;;
60031;Laerm;45901;47.600;9.890;2023-03-31T01:59:15;40.75;38.95;42.22;;
60031;Laerm;45901;47.600;9.890;2023-03-31T02:01:51;40.88;39.08;45.01;;
60031;Laerm;45901;47.600;9.890;2023-03-31T02:04:25;40.78;39.21;42.29;;
60031;Laerm;45901;47.600;9.890;2023-03-31T02:06:59;40.77;38.67;42.16;;
60031;Laerm;45901;47.600;9.890;2023-03-31T02:09:33;40.84;39.34;42.16;;
60031;Laerm;45901;47.600;9.890;2023-03-31T02:12:07;40.82;38.81;42.65;;
60031;Laerm;45901;47.600;9.890;2023-03-31T02:14:38;40.75;39.21;42.22;;
60031;Laerm;45901;47.600;9.890;2023-03-31T02:17:07;40.86;39.08;43.63;;
60031;Laerm;45901;47.600;9.890;2023-03-31T02:19:40;41.07;39.34;43.09;;
60031;Laerm;45901;47.600;9.890;2023-03-31T02:22:11;40.89;39.08;45.45;;
60031;Laerm;45901;47.600;9.890;2023-03-31T02:24:40;40.69;38.52;42.35;;
60031;Laerm;45901;47.600;9.890;2023-03-31T02:27:14;40.75;38.95;43.72;;
60031;Laerm;45901;47.600;9.890;2023-03-31T02:29:44;40.67;38.95;41.96;;
60031;Laerm;45901;47.600;9.890;2023-03-31T02:32:14;40.71;39.08;43.60;;
60031;Laerm;45901;47.600;9.890;2023-03-31T02:34:47;40.67;39.21;41.96;;
60031;Laerm;45901;47.600;9.890;2023-03-31T02:37:15;40.59;38.52;42.16;;
60031;Laerm;45901;47.600;9.890;2023-03-31T02:39:46;40.59;38.87;42.29;;
60031;Laerm;45901;47.600;9.890;2023-03-31T02:42:17;40.57;38.81;42.82;;
60031;Laerm;45901;47.600;9.890;2023-03-31T02:44:45;40.52;38.52;42.65;;
60031;Laerm;45901;47.600;9.890;2023-03-31T02:47:14;40.50;38.52;43.49;;
60031;Laerm;45901;47.600;9.890;2023-03-31T02:49:48;40.49;38.67;41.82;;
60031;Laerm;45901;47.600;9.890;2023-03-31T02:52:35;40.46;38.52;41.96;;
60031;Laerm;45901;47.600;9.890;2023-03-31T02:55:29;40.45;38.21;41.89;;
60031;Laerm;45901;47.600;9.890;2023-03-31T02:58:33;40.45;38.81;42.09;;
60031;Laerm;45901;47.600;9.890;2023-03-31T03:01:13;40.58;38.67;44.11;;
60031;Laerm;45901;47.600;9.890;2023-03-31T03:04:00;40.73;38.67;42.93;;
60031;Laerm;45901;47.600;9.890;2023-03-31T03:06:41;40.71;38.81;42.53;;
60031;Laerm;45901;47.600;9.890;2023-03-31T03:09:32;40.70;39.08;42.29;;
60031;Laerm;45901;47.600;9.890;2023-03-31T03:12:10;40.82;39.08;42.65;;
60031;Laerm;45901;47.600;9.890;2023-03-31T03:14:46;40.72;38.95;42.35;;
60031;Laerm;45901;47.600;9.890;2023-03-31T03:17:18;40.80;38.81;44.11;;
60031;Laerm;45901;47.600;9.890;2023-03-31T03:19:52;40.78;39.08;42.09;;
60031;Laerm;45901;47.600;9.890;2023-03-31T03:22:21;40.76;38.99;42.16;;
60031;Laerm;45901;47.600;9.890;2023-03-31T03:24:48;40.88;38.95;42.35;;
60031;Laerm;45901;47.600;9.890;2023-03-31T03:27:16;40.86;38.95;43.29;;
60031;Laerm;45901;47.600;9.890;2023-03-31T03:29:45;40.88;39.34;43.54;;
60031;Laerm;45901;47.600;9.890;2023-03-31T03:32:12;40.79;38.67;44.03;;
60031;Laerm;45901;47.600;9.890;2023-03-31T03:34:40;40.79;39.08;42.76;;
60031;Laerm;45901;47.600;9.890;2023-03-31T03:37:07;40.70;38.67;42.41;;
60031;Laerm;45901;47.600;9.890;2023-03-31T03:39:34;40.63;38.81;42.71;;
60031;Laerm;45901;47.600;9.890;2023-03-31T03:42:02;40.42;38.67;41.96;;
60031;Laerm;45901;47.600;9.890;2023-03-31T03:44:29;40.60;38.67;42.98;;
60031;Laerm;45901;47.600;9.890;2023-03-31T03:46:58;40.74;38.52;43.90;;
60031;Laerm;45901;47.600;9.890;2023-03-31T03:49:25;40.54;38.67;42.71;;
60031;Laerm;45901;47.600;9.890;2023-03-31T03:51:53;40.40;38.67;42.03;;
60031;Laerm;45901;47.600;9.890;2023-03-31T03:54:20;40.28;38.52;41.68;;
60031;Laerm;45901;47.600;9.890;2023-03-31T03:56:47;40.45;38.81;43.24;;
60031;Laerm;45901;47.600;9.890;2023-03-31T03:59:15;40.35;38.52;43.04;;
60031;Laerm;45901;47.600;9.890;2023-03-31T04:01:43;40.47;38.21;45.20;;
60031;Laerm;45901;47.600;9.890;2023-03-31T04:04:11;40.38;38.21;43.58;;
60031;Laerm;45901;47.600;9.890;2023-03-31T04:06:39;40.26;38.37;41.75;;
60031;Laerm;45901;47.600;9.890;2023-03-31T04:09:06;40.37;38.52;42.88;;
60031;Laerm;45901;47.600;9.890;2023-03-31T04:11:34;40.33;38.52;43.14;;
60031;Laerm;45901;47.600;9.890;2023-03-31T04:14:04;40.31;38.67;42.65;;
60031;Laerm;45901;47.600;9.890;2023-03-31T04:16:31;40.34;38.67;43.34;;
60031;Laerm;45901;47.600;9.890;2023-03-31T04:18:59;40.40;38.52;43.29;;
60031;Laerm;45901;47.600;9.890;2023-03-31T04:21:30;40.32;38.52;42.09;;
60031;Laerm;45901;47.600;9.890;2023-03-31T04:24:00;40.40;38.52;42.16;;
60031;Laerm;45901;47.600;9.890;2023-03-31T04:26:31;40.57;38.52;44.80;;
60031;Laerm;45901;47.600;9.890;2023-03-31T04:29:08;40.48;38.52;42.29;;
60031;Laerm;45901;47.600;9.890;2023-03-31T04:31:38;40.59;38.81;43.68;;
60031;Laerm;45901;47.600;9.890;2023-03-31T04:34:08;40.58;38.81;44.07;;
60031;Laerm;45901;47.600;9.890;2023-03-31T04:36:40;40.62;38.67;45.01;;
60031;Laerm;45901;47.600;9.890;2023-03-31T04:39:12;40.62;38.67;44.76;;
60031;Laerm;45901;47.600;9.890;2023-03-31T04:41:39;40.54;38.67;42.71;;
60031;Laerm;45901;47.600;9.890;2023-03-31T04:44:06;40.32;38.81;41.68;;
60031;Laerm;45901;47.600;9.890;2023-03-31T04:46:35;40.40;38.67;43.68;;
60031;Laerm;45901;47.600;9.890;2023-03-31T04:49:02;40.30;38.32;41.68;;
60031;Laerm;45901;47.600;9.890;2023-03-31T04:51:30;40.27;38.37;41.89;;
60031;Laerm;45901;47.600;9.890;2023-03-31T04:53:59;40.37;38.52;45.80;;
60031;Laerm;45901;47.600;9.890;2023-03-31T04:56:26;40.50;38.52;45.14;;
60031;Laerm;45901;47.600;9.890;2023-03-31T04:58:54;40.43;38.21;46.87;;
60031;Laerm;45901;47.600;9.890;2023-03-31T05:01:21;40.59;38.05;47.04;;
60031;Laerm;45901;47.600;9.890;2023-03-31T05:03:49;40.70;38.67;46.10;;
60031;Laerm;45901;47.600;9.890;2023-03-31T05:06:17;40.87;38.52;48.08;;
60031;Laerm;45901;47.600;9.890;2023-03-31T05:08:44;40.58;38.81;42.93;;
60031;Laerm;45901;47.600;9.890;2023-03-31T05:11:13;40.36;38.67;43.04;;
60031;Laerm;45901;47.600;9.890;2023-03-31T05:13:40;40.26;38.37;42.98;;
60031;Laerm;45901;47.600;9.890;2023-03-31T05:16:09;40.70;38.37;52.04;;
60031;Laerm;45901;47.600;9.890;2023-03-31T05:18:37;40.71;38.81;43.19;;
60031;Laerm;45901;47.600;9.890;2023-03-31T05:21:12;40.84;38.95;46.93;;
60031;Laerm;45901;47.600;9.890;2023-03-31T05:23:40;40.61;38.67;42.16;;
60031;Laerm;45901;47.600;9.890;2023-03-31T05:26:08;40.65;38.47;48.15;;
60031;Laerm;45901;47.600;9.890;2023-03-31T05:28:38;40.21;38.21;42.03;;
60031;Laerm;45901;47.600;9.890;2023-03-31T05:31:07;40.22;38.21;43.04;;
60031;Laerm;45901;47.600;9.890;2023-03-31T05:33:35;40.21;38.05;45.83;;
60031;Laerm;45901;47.600;9.890;2023-03-31T05:36:06;40.21;38.21;41.96;;
60031;Laerm;45901;47.600;9.890;2023-03-31T05:38:34;40.42;38.52;42.16;;
60031;Laerm;45901;47.600;9.890;2023-03-31T05:41:01;40.59;38.81;42.35;;
60031;Laerm;45901;47.600;9.890;2023-03-31T05:43:29;40.64;38.67;43.19;;
60031;Laerm;45901;47.600;9.890;2023-03-31T05:45:58;40.75;39.08;46.59;;
60031;Laerm;45901;47.600;9.890;2023-03-31T05:48:25;40.85;39.21;43.86;;
60031;Laerm;45901;47.600;9.890;2023-03-31T05:50:56;40.99;39.34;50.80;;
60031;Laerm;45901;47.600;9.890;2023-03-31T05:53:24;41.13;39.46;47.12;;
60031;Laerm;45901;47.600;9.890;2023-03-31T05:55:57;41.22;39.70;43.39;;
60031;Laerm;45901;47.600;9.890;2023-03-31T05:58:25;41.43;39.58;49.21;;
60031;Laerm;45901;47.600;9.890;2023-03-31T06:01:02;41.62;39.81;47.88;;
60031;Laerm;45901;47.600;9.890;2023-03-31T06:03:32;41.32;39.46;42.88;;
60031;Laerm;45901;47.600;9.890;2023-03-31T06:05:59;41.51;39.81;49.98;;
60031;Laerm;45901;47.600;9.890;2023-03-31T06:08:28;41.49;39.89;47.74;;
60031;Laerm;45901;47.600;9.890;2023-03-31T06:10:55;41.38;39.70;46.02;;
60031;Laerm;45901;47.600;9.890;2023-03-31T06:13:23;41.31;39.21;43.77;;
60031;Laerm;45901;47.600;9.890;2023-03-31T06:15:54;41.32;39.58;46.23;;
60031;Laerm;45901;47.600;9.890;2023-03-31T06:18:24;41.32;39.58;43.68;;
60031;Laerm;45901;47.600;9.890;2023-03-31T06:20:53;41.46;39.58;44.19;;
60031;Laerm;45901;47.600;9.890;2023-03-31T06:23:21;41.38;39.81;43.24;;
60031;Laerm;45901;47.600;9.890;2023-03-31T06:25:49;41.54;39.92;45.45;;
60031;Laerm;45901;47.600;9.890;2023-03-31T06:28:17;41.51;39.70;44.58;;
60031;Laerm;45901;47.600;9.890;2023-03-31T06:30:44;41.36;39.70;44.47;;
60031;Laerm;45901;47.600;9.890;2023-03-31T06:33:12;41.58;39.58;45.77;;
60031;Laerm;45901;47.600;9.890;2023-03-31T06:35:41;41.26;39.70;43.34;;
60031;Laerm;45901;47.600;9.890;2023-03-31T06:38:08;41.34;39.70;53.38;;
60031;Laerm;45901;47.600;9.890;2023-03-31T06:40:36;41.20;39.21;45.77;;
60031;Laerm;45901;47.600;9.890;2023-03-31T06:43:03;41.26;39.46;46.23;;
60031;Laerm;45901;47.600;9.890;2023-03-31T06:45:30;41.11;39.08;44.83;;
60031;Laerm;45901;47.600;9.890;2023-03-31T06:47:58;41.13;39.21;43.14;;
60031;Laerm;45901;47.600;9.890;2023-03-31T06:50:25;41.27;39.92;43.09;;
60031;Laerm;45901;47.600;9.890;2023-03-31T06:52:54;41.38;39.92;48.26;;
60031;Laerm;45901;47.600;9.890;2023-03-31T06:55:22;41.58;39.81;47.70;;
60031;Laerm;45901;47.600;9.890;2023-03-31T06:57:49;41.64;39.81;44.47;;
60031;Laerm;45901;47.600;9.890;2023-03-31T07:00:17;41.80;39.70;46.62;;
60031;Laerm;45901;47.600;9.890;2023-03-31T07:02:45;41.66;39.81;46.15;;
60031;Laerm;45901;47.600;9.890;2023-03-31T07:05:12;41.70;39.92;51.60;;
60031;Laerm;45901;47.600;9.890;2023-03-31T07:07:40;41.56;39.58;47.68;;
60031;Laerm;45901;47.600;9.890;2023-03-31T07:10:09;41.52;39.70;45.20;;
60031;Laerm;45901;47.600;9.890;2023-03-31T07:12:37;41.67;39.70;55.72;;
60031;Laerm;45901;47.600;9.890;2023-03-31T07:15:06;41.87;39.58;54.40;;
60031;Laerm;45901;47.600;9.890;2023-03-31T07:17:33;42.10;39.46;54.62;;
60031;Laerm;45901;47.600;9.890;2023-03-31T07:20:02;41.78;39.70;51.37;;
60031;Laerm;45901;47.600;9.890;2023-03-31T07:22:30;41.38;39.34;43.90;;
60031;Laerm;45901;47.600;9.890;2023-03-31T07:24:57;41.67;39.70;47.12;;
60031;Laerm;45901;47.600;9.890;2023-03-31T07:27:26;42.41;40.33;52.16;;
60031;Laerm;45901;47.600;9.890;2023-03-31T07:29:54;41.56;39.81;45.77;;
60031;Laerm;45901;47.600;9.890;2023-03-31T07:32:21;41.68;39.89;45.75;;
60031;Laerm;45901;47.600;9.890;2023-03-31T07:34:49;41.53;39.92;45.42;;
60031;Laerm;45901;47.600;9.890;2023-03-31T07:37:16;41.54;39.81;43.63;;
60031;Laerm;45901;47.600;9.890;2023-03-31T07:39:44;41.72;39.92;44.23;;
60031;Laerm;45901;47.600;9.890;2023-03-31T07:42:11;41.61;39.46;45.51;;
60031;Laerm;45901;47.600;9.890;2023-03-31T07:44:40;41.62;39.81;49.08;;
60031;Laerm;45901;47.600;9.890;2023-03-31T07:47:07;41.83;39.92;51.32;;
60031;Laerm;45901;47.600;9.890;2023-03-31T07:49:35;41.70;39.92;45.63;;
60031;Laerm;45901;47.600;9.890;2023-03-31T07:52:03;41.90;39.70;47.00;;
60031;Laerm;45901;47.600;9.890;2023-03-31T07:54:30;41.58;39.70;45.48;;
60031;Laerm;45901;47.600;9.890;2023-03-31T07:56:58;41.68;39.58;47.28;;
60031;Laerm;45901;47.600;9.890;2023-03-31T07:59:28;41.76;39.70;54.02;;
60031;Laerm;45901;47.600;9.890;2023-03-31T08:01:57;44.04;40.33;62.20;;
60031;Laerm;45901;47.600;9.890;2023-03-31T08:04:24;42.36;40.03;54.30;;
60031;Laerm;45901;47.600;9.890;2023-03-31T08:06:52;42.06;39.70;55.53;;
60031;Laerm;45901;47.600;9.890;2023-03-31T08:09:20;41.39;39.81;43.24;;
60031;Laerm;45901;47.600;9.890;2023-03-31T08:11:48;41.36;39.46;43.54;;
60031;Laerm;45901;47.600;9.890;2023-03-31T08:14:16;41.15;39.34;43.24;;
60031;Laerm;45901;47.600;9.890;2023-03-31T08:16:43;41.25;39.81;50.43;;
60031;Laerm;45901;47.600;9.890;2023-03-31T08:19:12;41.44;40.03;45.01;;
60031;Laerm;45901;47.600;9.890;2023-03-31T08:21:39;41.36;39.70;48.90;;
60031;Laerm;45901;47.600;9.890;2023-03-31T08:24:07;41.36;39.46;50.11;;
60031;Laerm;45901;47.600;9.890;2023-03-31T08:26:34;41.42;39.58;48.18;;
60031;Laerm;45901;47.600;9.890;2023-03-31T08:29:01;41.26;39.58;42.93;;
60031;Laerm;45901;47.600;9.890;2023-03-31T08:31:29;41.32;39.81;44.73;;
60031;Laerm;45901;47.600;9.890;2023-03-31T08:33:56;41.18;39.58;45.69;;
60031;Laerm;45901;47.600;9.890;2023-03-31T08:36:25;41.33;39.46;49.91;;
60031;Laerm;45901;47.600;9.890;2023-03-31T08:38:53;41.21;39.46;42.76;;
60031;Laerm;45901;47.600;9.890;2023-03-31T08:41:45;41.06;39.46;42.71;;
60031;Laerm;45901;47.600;9.890;2023-03-31T08:44:16;41.12;39.57;43.44;;
60031;Laerm;45901;47.600;9.890;2023-03-31T08:46:47;41.29;39.46;45.48;;
60031;Laerm;45901;47.600;9.890;2023-03-31T08:49:18;41.27;39.70;49.70;;
60031;Laerm;45901;47.600;9.890;2023-03-31T08:51:51;41.27;39.58;52.71;;
60031;Laerm;45901;47.600;9.890;2023-03-31T08:54:32;41.39;39.46;56.16;;
60031;Laerm;45901;47.600;9.890;2023-03-31T08:57:01;41.19;39.08;43.24;;
60031;Laerm;45901;47.600;9.890;2023-03-31T08:59:33;41.35;39.70;48.25;;
60031;Laerm;45901;47.600;9.890;2023-03-31T09:02:13;41.53;39.58;48.25;;
60031;Laerm;45901;47.600;9.890;2023-03-31T09:05:09;41.27;39.46;43.81;;
60031;Laerm;45901;47.600;9.890;2023-03-31T09:07:47;41.17;39.58;43.58;;
60031;Laerm;45901;47.600;9.890;2023-03-31T09:10:30;41.12;39.68;43.09;;
60031;Laerm;45901;47.600;9.890;2023-03-31T09:13:09;41.12;39.21;44.69;;
60031;Laerm;45901;47.600;9.890;2023-03-31T09:15:47;41.20;39.58;43.94;;
60031;Laerm;45901;47.600;9.890;2023-03-31T09:18:25;41.05;39.08;42.65;;
60031;Laerm;45901;47.600;9.890;2023-03-31T09:21:01;41.28;39.34;47.40;;
60031;Laerm;45901;47.600;9.890;2023-03-31T09:23:37;41.40;39.34;61.89;;
60031;Laerm;45901;47.600;9.890;2023-03-31T09:26:19;41.33;39.70;46.59;;
60031;Laerm;45901;47.600;9.890;2023-03-31T09:28:51;41.22;39.58;46.55;;
60031;Laerm;45901;47.600;9.890;2023-03-31T09:31:20;41.28;39.46;48.05;;
60031;Laerm;45901;47.600;9.890;2023-03-31T09:33:53;41.24;39.46;46.91;;
60031;Laerm;45901;47.600;9.890;2023-03-31T09:36:24;41.17;39.46;45.60;;
60031;Laerm;45901;47.600;9.890;2023-03-31T09:38:53;41.15;39.70;54.65;;
60031;Laerm;45901;47.600;9.890;2023-03-31T09:41:20;41.46;39.46;58.06;;
60031;Laerm;45901;47.600;9.890;2023-03-31T09:43:48;42.11;39.34;67.01;;
60031;Laerm;45901;47.600;9.890;2023-03-31T09:46:23;41.27;39.46;45.80;;
60031;Laerm;45901;47.600;9.890;2023-03-31T09:49:00;41.18;39.34;43.90;;
60031;Laerm;45901;47.600;9.890;2023-03-31T09:51:33;41.09;39.46;44.47;;
60031;Laerm;45901;47.600;9.890;2023-03-31T09:54:12;41.17;39.08;44.43;;
60031;Laerm;45901;47.600;9.890;2023-03-31T09:56:48;41.12;39.46;43.44;;
60031;Laerm;45901;47.600;9.890;2023-03-31T09:59:20;41.12;39.21;47.28;;
60031;Laerm;45901;47.600;9.890;2023-03-31T10:01:51;41.56;39.58;46.78;;
60031;Laerm;45901;47.600;9.890;2023-03-31T10:04:23;41.63;39.92;45.39;;
60031;Laerm;45901;47.600;9.890;2023-03-31T10:06:51;42.19;40.13;52.38;;
60031;Laerm;45901;47.600;9.890;2023-03-31T10:09:25;41.47;39.46;44.11;;
60031;Laerm;45901;47.600;9.890;2023-03-31T10:11:55;41.07;39.58;42.71;;
60031;Laerm;45901;47.600;9.890;2023-03-31T10:14:26;41.37;39.70;46.13;;
60031;Laerm;45901;47.600;9.890;2023-03-31T10:17:03;43.72;39.46;64.65;;
60031;Laerm;45901;47.600;9.890;2023-03-31T10:19:33;43.02;39.58;53.98;;
60031;Laerm;45901;47.600;9.890;2023-03-31T10:22:05;42.57;39.70;51.70;;
60031;Laerm;45901;47.600;9.890;2023-03-31T10:24:39;43.64;40.33;58.85;;
60031;Laerm;45901;47.600;9.890;2023-03-31T10:27:18;42.76;39.92;51.41;;
60031;Laerm;45901;47.600;9.890;2023-03-31T10:29:47;41.63;39.81;49.38;;
60031;Laerm;45901;47.600;9.890;2023-03-31T10:32:23;41.63;39.58;45.86;;
60031;Laerm;45901;47.600;9.890;2023-03-31T10:34:54;41.70;39.70;46.38;;
60031;Laerm;45901;47.600;9.890;2023-03-31T10:37:24;41.23;39.58;43.34;;
60031;Laerm;45901;47.600;9.890;2023-03-31T10:39:58;41.27;39.46;44.87;;
60031;Laerm;45901;47.600;9.890;2023-03-31T10:42:27;41.49;39.81;48.22;;
60031;Laerm;45901;47.600;9.890;2023-03-31T10:45:12;41.86;39.92;51.49;;
60031;Laerm;45901;47.600;9.890;2023-03-31T10:47:40;41.47;40.03;45.17;;
60031;Laerm;45901;47.600;9.890;2023-03-31T10:50:14;41.42;39.58;44.94;;
60031;Laerm;45901;47.600;9.890;2023-03-31T10:52:44;41.40;39.58;44.15;;
60031;Laerm;45901;47.600;9.890;2023-03-31T10:55:21;41.51;39.70;46.50;;
60031;Laerm;45901;47.600;9.890;2023-03-31T10:57:54;41.34;39.46;44.27;;
60031;Laerm;45901;47.600;9.890;2023-03-31T11:00:28;41.55;39.70;50.13;;
60031;Laerm;45901;47.600;9.890;2023-03-31T11:03:22;41.57;39.70;43.44;;
60031;Laerm;45901;47.600;9.890;2023-03-31T11:05:58;41.62;40.03;45.07;;
60031;Laerm;45901;47.600;9.890;2023-03-31T11:08:46;41.44;39.70;44.08;;
60031;Laerm;45901;47.600;9.890;2023-03-31T11:11:32;41.82;39.81;45.30;;
60031;Laerm;45901;47.600;9.890;2023-03-31T11:14:09;41.36;39.70;43.72;;
60031;Laerm;45901;47.600;9.890;2023-03-31T11:16:55;41.43;39.58;44.87;;
60031;Laerm;45901;47.600;9.890;2023-03-31T11:19:46;41.57;39.70;46.25;;
60031;Laerm;45901;47.600;9.890;2023-03-31T11:22:24;41.73;39.68;56.27;;
60031;Laerm;45901;47.600;9.890;2023-03-31T11:25:30;41.38;39.81;47.18;;
60031;Laerm;45901;47.600;9.890;2023-03-31T11:28:33;41.39;39.34;43.29;;
60031;Laerm;45901;47.600;9.890;2023-03-31T11:31:16;41.58;39.46;48.91;;
60031;Laerm;45901;47.600;9.890;2023-03-31T11:37:05;41.53;39.46;44.45;;
60031;Laerm;45901;47.600;9.890;2023-03-31T11:39:49;41.35;39.46;43.90;;
60031;Laerm;45901;47.600;9.890;2023-03-31T11:42:25;41.39;39.70;43.76;;
60031;Laerm;45901;47.600;9.890;2023-03-31T11:45:01;41.42;39.81;43.81;;
60031;Laerm;45901;47.600;9.890;2023-03-31T11:47:33;41.41;39.46;45.01;;
60031;Laerm;45901;47.600;9.890;2023-03-31T11:50:10;41.65;39.70;50.05;;
60031;Laerm;45901;47.600;9.890;2023-03-31T11:52:41;41.45;39.70;45.97;;
60031;Laerm;45901;47.600;9.890;2023-03-31T11:55:16;45.60;40.23;63.05;;
60031;Laerm;45901;47.600;9.890;2023-03-31T11:57:58;46.95;40.71;62.42;;
60031;Laerm;45901;47.600;9.890;2023-03-31T12:00:32;42.90;40.03;65.96;;
60031;Laerm;45901;47.600;9.890;2023-03-31T12:03:07;41.92;40.13;48.54;;
60031;Laerm;45901;47.600;9.890;2023-03-31T12:05:41;44.18;39.70;62.98;;
60031;Laerm;45901;47.600;9.890;2023-03-31T12:08:14;51.42;42.41;70.87;;
60031;Laerm;45901;47.600;9.890;2023-03-31T12:10:45;50.58;42.29;68.48;;
60031;Laerm;45901;47.600;9.890;2023-03-31T12:13:38;49.77;40.43;64.96;;
60031;Laerm;45901;47.600;9.890;2023-03-31T12:16:13;41.75;39.21;49.49;;
60031;Laerm;45901;47.600;9.890;2023-03-31T12:18:48;41.19;39.08;45.11;;
60031;Laerm;45901;47.600;9.890;2023-03-31T12:21:24;40.96;39.23;43.72;;
60031;Laerm;45901;47.600;9.890;2023-03-31T12:23:53;40.91;38.95;43.44;;
60031;Laerm;45901;47.600;9.890;2023-03-31T12:26:35;40.80;39.21;42.88;;
60031;Laerm;45901;47.600;9.890;2023-03-31T12:29:19;40.78;39.08;44.83;;
60031;Laerm;45901;47.600;9.890;2023-03-31T12:31:52;41.01;39.46;42.98;;
60031;Laerm;45901;47.600;9.890;2023-03-31T12:34:21;41.03;39.08;43.86;;
60031;Laerm;45901;47.600;9.890;2023-03-31T12:37:22;40.71;38.81;42.59;;
60031;Laerm;45901;47.600;9.890;2023-03-31T12:40:07;40.68;38.81;43.14;;
60031;Laerm;45901;47.600;9.890;2023-03-31T12:43:30;40.64;38.67;47.65;;
60031;Laerm;45901;47.600;9.890;2023-03-31T12:46:21;40.75;38.95;43.77;;
60031;Laerm;45901;47.600;9.890;2023-03-31T12:49:05;40.61;38.67;42.76;;
60031;Laerm;45901;47.600;9.890;2023-03-31T12:51:54;40.61;38.95;42.03;;
60031;Laerm;45901;47.600;9.890;2023-03-31T12:55:01;41.52;39.34;47.83;;
60031;Laerm;45901;47.600;9.890;2023-03-31T12:57:34;41.81;39.70;47.10;;
60031;Laerm;45901;47.600;9.890;2023-03-31T13:00:26;42.08;40.03;47.70;;
60031;Laerm;45901;47.600;9.890;2023-03-31T13:03:36;41.58;39.81;44.66;;
60031;Laerm;45901;47.600;9.890;2023-03-31T13:06:08;41.37;39.46;44.97;;
60031;Laerm;45901;47.600;9.890;2023-03-31T13:08:52;41.08;39.21;48.23;;
60031;Laerm;45901;47.600;9.890;2023-03-31T13:11:21;41.06;39.21;42.53;;
60031;Laerm;45901;47.600;9.890;2023-03-31T13:14:03;41.06;39.08;44.19;;
60031;Laerm;45901;47.600;9.890;2023-03-31T13:16:33;41.30;39.70;44.51;;
60031;Laerm;45901;47.600;9.890;2023-03-31T13:19:01;42.81;40.03;61.74;;
60031;Laerm;45901;47.600;9.890;2023-03-31T13:21:30;43.21;40.33;54.09;;
60031;Laerm;45901;47.600;9.890;2023-03-31T13:24:00;43.25;40.80;56.08;;
60031;Laerm;45901;47.600;9.890;2023-03-31T13:26:46;42.68;39.81;56.17;;
60031;Laerm;45901;47.600;9.890;2023-03-31T13:29:23;41.64;39.92;48.00;;
60031;Laerm;45901;47.600;9.890;2023-03-31T13:32:18;41.47;39.58;47.88;;
60031;Laerm;45901;47.600;9.890;2023-03-31T13:34:53;43.55;40.13;61.30;;
60031;Laerm;45901;47.600;9.890;2023-03-31T13:37:42;42.19;40.13;48.12;;
60031;Laerm;45901;47.600;9.890;2023-03-31T13:40:39;41.16;39.08;45.01;;
60031;Laerm;45901;47.600;9.890;2023-03-31T13:46:49;41.03;39.34;45.01;;
60031;Laerm;45901;47.600;9.890;2023-03-31T13:49:51;41.34;39.46;44.27;;
60031;Laerm;45901;47.600;9.890;2023-03-31T13:52:41;41.18;39.46;44.69;;
60031;Laerm;45901;47.600;9.890;2023-03-31T13:56:00;41.25;39.34;48.05;;
60031;Laerm;45901;47.600;9.890;2023-03-31T13:59:10;41.25;39.08;44.97;;
60031;Laerm;45901;47.600;9.890;2023-03-31T14:05:32;40.99;39.46;42.82;;
60031;Laerm;45901;47.600;9.890;2023-03-31T14:08:07;41.04;39.46;44.31;;
60031;Laerm;45901;47.600;9.890;2023-03-31T14:10:39;41.07;39.58;43.63;;
60031;Laerm;45901;47.600;9.890;2023-03-31T14:13:11;40.99;39.34;43.34;;
60031;Laerm;45901;47.600;9.890;2023-03-31T14:15:42;41.26;39.58;45.69;;
60031;Laerm;45901;47.600;9.890;2023-03-31T14:18:15;41.22;39.46;43.99;;
60031;Laerm;45901;47.600;9.890;2023-03-31T14:20:57;41.14;39.46;47.02;;
60031;Laerm;45901;47.600;9.890;2023-03-31T14:23:47;41.16;39.46;47.34;;
60031;Laerm;45901;47.600;9.890;2023-03-31T14:26:31;41.20;39.58;44.83;;
60031;Laerm;45901;47.600;9.890;2023-03-31T14:29:10;41.39;39.46;53.75;;
60031;Laerm;45901;47.600;9.890;2023-03-31T14:31:48;41.18;39.34;45.33;;
60031;Laerm;45901;47.600;9.890;2023-03-31T14:34:52;41.07;39.34;42.53;;
60031;Laerm;45901;47.600;9.890;2023-03-31T14:37:22;41.14;39.34;42.53;;
60031;Laerm;45901;47.600;9.890;2023-03-31T14:39:54;41.17;39.21;43.29;;
60031;Laerm;45901;47.600;9.890;2023-03-31T14:42:24;41.06;39.46;43.14;;